sensor_id;sensor_type;location;lat;lon;timestamp;pressure;altitude;pressure_sealevel;temperature;humidity
59757;BME280;45631;51.962;5.974;2023-03-18T00:00:13;100601.78;;;11.45;100.00
59757;BME280;45631;51.962;5.974;2023-03-18T00:02:43;100602.00;;;11.42;100.00
59757;BME280;45631;51.962;5.974;2023-03-18T00:05:12;100603.19;;;11.38;100.00
59757;BME280;45631;51.962;5.974;2023-03-18T00:07:41;100612.97;;;11.36;100.00
59757;BME280;45631;51.962;5.974;2023-03-18T00:10:12;100622.78;;;11.33;100.00
59757;BME280;45631;51.962;5.974;2023-03-18T00:12:41;100625.75;;;11.29;100.00
59757;BME280;45631;51.962;5.974;2023-03-18T00:15:11;100627.88;;;11.24;100.00
59757;BME280;45631;51.962;5.974;2023-03-18T00:17:40;100630.69;;;11.21;100.00
59757;BME280;45631;51.962;5.974;2023-03-18T00:20:10;100618.81;;;11.15;100.00
59757;BME280;45631;51.962;5.974;2023-03-18T00:22:40;100620.72;;;11.13;100.00
59757;BME280;45631;51.962;5.974;2023-03-18T00:25:12;100619.16;;;11.10;100.00
59757;BME280;45631;51.962;5.974;2023-03-18T00:27:41;100624.00;;;11.04;100.00
59757;BME280;45631;51.962;5.974;2023-03-18T00:30:10;100615.59;;;10.98;100.00
59757;BME280;45631;51.962;5.974;2023-03-18T00:32:39;100613.91;;;10.97;100.00
59757;BME280;45631;51.962;5.974;2023-03-18T00:35:08;100619.63;;;10.91;100.00
59757;BME280;45631;51.962;5.974;2023-03-18T00:37:38;100620.88;;;10.86;100.00
59757;BME280;45631;51.962;5.974;2023-03-18T00:40:09;100625.63;;;10.80;100.00
59757;BME280;45631;51.962;5.974;2023-03-18T00:42:45;100630.16;;;10.78;100.00
59757;BME280;45631;51.962;5.974;2023-03-18T00:45:16;100635.50;;;10.77;100.00
59757;BME280;45631;51.962;5.974;2023-03-18T00:47:45;100627.94;;;10.72;100.00
59757;BME280;45631;51.962;5.974;2023-03-18T00:50:15;100633.31;;;10.71;100.00
59757;BME280;45631;51.962;5.974;2023-03-18T00:52:44;100637.81;;;10.69;100.00
59757;BME280;45631;51.962;5.974;2023-03-18T00:55:12;100642.59;;;10.63;100.00
59757;BME280;45631;51.962;5.974;2023-03-18T00:57:41;100648.03;;;10.60;100.00
59757;BME280;45631;51.962;5.974;2023-03-18T01:00:12;100649.72;;;10.61;100.00
59757;BME280;45631;51.962;5.974;2023-03-18T01:02:42;100648.13;;;10.59;100.00
59757;BME280;45631;51.962;5.974;2023-03-18T01:05:12;100643.09;;;10.56;100.00
59757;BME280;45631;51.962;5.974;2023-03-18T01:07:40;100645.84;;;10.54;100.00
59757;BME280;45631;51.962;5.974;2023-03-18T01:10:10;100655.72;;;10.51;100.00
59757;BME280;45631;51.962;5.974;2023-03-18T01:12:41;100648.03;;;10.47;100.00
59757;BME280;45631;51.962;5.974;2023-03-18T01:15:13;100649.19;;;10.43;100.00
59757;BME280;45631;51.962;5.974;2023-03-18T01:17:42;100650.25;;;10.41;100.00
59757;BME280;45631;51.962;5.974;2023-03-18T01:20:13;100649.41;;;10.40;100.00
59757;BME280;45631;51.962;5.974;2023-03-18T01:22:43;100640.88;;;10.37;100.00
59757;BME280;45631;51.962;5.974;2023-03-18T01:25:13;100643.41;;;10.38;100.00
59757;BME280;45631;51.962;5.974;2023-03-18T01:27:43;100634.78;;;10.36;100.00
59757;BME280;45631;51.962;5.974;2023-03-18T01:30:13;100633.94;;;10.36;100.00
59757;BME280;45631;51.962;5.974;2023-03-18T01:32:42;100646.78;;;10.40;100.00
59757;BME280;45631;51.962;5.974;2023-03-18T01:35:11;100639.25;;;10.34;100.00
59757;BME280;45631;51.962;5.974;2023-03-18T01:37:39;100649.13;;;10.30;100.00
59757;BME280;45631;51.962;5.974;2023-03-18T01:40:11;100650.50;;;10.23;100.00
59757;BME280;45631;51.962;5.974;2023-03-18T01:42:41;100656.59;;;10.24;100.00
59757;BME280;45631;51.962;5.974;2023-03-18T01:45:16;100657.53;;;10.23;100.00
59757;BME280;45631;51.962;5.974;2023-03-18T01:47:46;100663.63;;;10.23;100.00
59757;BME280;45631;51.962;5.974;2023-03-18T01:50:19;100656.41;;;10.27;100.00
59757;BME280;45631;51.962;5.974;2023-03-18T01:52:51;100663.41;;;10.26;100.00
59757;BME280;45631;51.962;5.974;2023-03-18T01:55:24;100658.47;;;10.22;100.00
59757;BME280;45631;51.962;5.974;2023-03-18T01:57:53;100658.47;;;10.22;100.00
59757;BME280;45631;51.962;5.974;2023-03-18T02:00:24;100659.53;;;10.19;100.00
59757;BME280;45631;51.962;5.974;2023-03-18T02:02:53;100658.88;;;10.15;100.00
59757;BME280;45631;51.962;5.974;2023-03-18T02:05:24;100653.63;;;10.15;100.00
59757;BME280;45631;51.962;5.974;2023-03-18T02:07:54;100661.00;;;10.23;100.00
59757;BME280;45631;51.962;5.974;2023-03-18T02:10:24;100657.84;;;10.18;100.00
59757;BME280;45631;51.962;5.974;2023-03-18T02:12:56;100657.00;;;10.18;100.00
59757;BME280;45631;51.962;5.974;2023-03-18T02:15:28;100649.44;;;10.13;100.00
59757;BME280;45631;51.962;5.974;2023-03-18T02:18:01;100653.19;;;10.09;100.00
59757;BME280;45631;51.962;5.974;2023-03-18T02:20:47;100642.59;;;10.10;100.00
59757;BME280;45631;51.962;5.974;2023-03-18T02:23:25;100653.00;;;10.12;100.00
59757;BME280;45631;51.962;5.974;2023-03-18T02:26:01;100657.50;;;10.10;100.00
59757;BME280;45631;51.962;5.974;2023-03-18T02:28:32;100651.53;;;10.08;100.00
59757;BME280;45631;51.962;5.974;2023-03-18T02:31:07;100649.50;;;9.98;100.00
59757;BME280;45631;51.962;5.974;2023-03-18T02:33:40;100642.53;;;9.97;100.00
59757;BME280;45631;51.962;5.974;2023-03-18T02:36:12;100645.19;;;9.97;100.00
59757;BME280;45631;51.962;5.974;2023-03-18T02:38:43;100651.38;;;9.96;100.00
59757;BME280;45631;51.962;5.974;2023-03-18T02:41:14;100648.84;;;9.95;100.00
59757;BME280;45631;51.962;5.974;2023-03-18T02:43:44;100645.59;;;9.91;100.00
59757;BME280;45631;51.962;5.974;2023-03-18T02:46:24;100654.63;;;9.87;100.00
59757;BME280;45631;51.962;5.974;2023-03-18T02:48:53;100660.03;;;9.84;100.00
59757;BME280;45631;51.962;5.974;2023-03-18T02:51:24;100663.63;;;9.83;100.00
59757;BME280;45631;51.962;5.974;2023-03-18T02:53:54;100669.06;;;9.80;100.00
59757;BME280;45631;51.962;5.974;2023-03-18T02:56:24;100679.56;;;9.80;100.00
59757;BME280;45631;51.962;5.974;2023-03-18T02:58:54;100680.63;;;9.77;100.00
59757;BME280;45631;51.962;5.974;2023-03-18T03:01:24;100682.41;;;9.77;100.00
59757;BME280;45631;51.962;5.974;2023-03-18T03:03:53;100678.94;;;9.76;100.00
59757;BME280;45631;51.962;5.974;2023-03-18T03:06:21;100671.81;;;9.78;100.00
59757;BME280;45631;51.962;5.974;2023-03-18T03:08:50;100680.97;;;9.86;100.00
59757;BME280;45631;51.962;5.974;2023-03-18T03:11:19;100680.13;;;9.85;100.00
59757;BME280;45631;51.962;5.974;2023-03-18T03:13:48;100681.72;;;9.88;100.00
59757;BME280;45631;51.962;5.974;2023-03-18T03:16:19;100686.03;;;9.89;100.00
59757;BME280;45631;51.962;5.974;2023-03-18T03:18:47;100681.50;;;9.91;100.00
59757;BME280;45631;51.962;5.974;2023-03-18T03:21:16;100679.19;;;9.86;100.00
59757;BME280;45631;51.962;5.974;2023-03-18T03:23:45;100678.25;;;9.87;100.00
59757;BME280;45631;51.962;5.974;2023-03-18T03:26:15;100677.50;;;9.85;100.00
59757;BME280;45631;51.962;5.974;2023-03-18T03:28:44;100679.28;;;9.85;100.00
59757;BME280;45631;51.962;5.974;2023-03-18T03:31:13;100683.69;;;9.84;100.00
59757;BME280;45631;51.962;5.974;2023-03-18T03:33:44;100683.91;;;9.81;100.00
59757;BME280;45631;51.962;5.974;2023-03-18T03:36:14;100689.91;;;9.83;100.00
59757;BME280;45631;51.962;5.974;2023-03-18T03:38:44;100690.72;;;9.84;100.00
59757;BME280;45631;51.962;5.974;2023-03-18T03:41:13;100695.06;;;9.85;100.00
59757;BME280;45631;51.962;5.974;2023-03-18T03:43:43;100697.69;;;9.85;100.00
59757;BME280;45631;51.962;5.974;2023-03-18T03:46:12;100697.69;;;9.85;100.00
59757;BME280;45631;51.962;5.974;2023-03-18T03:48:41;100699.28;;;9.87;100.00
59757;BME280;45631;51.962;5.974;2023-03-18T03:51:11;100702.06;;;9.84;100.00
59757;BME280;45631;51.962;5.974;2023-03-18T03:53:40;100712.59;;;9.84;100.00
59757;BME280;45631;51.962;5.974;2023-03-18T03:56:09;100704.59;;;9.86;100.00
59757;BME280;45631;51.962;5.974;2023-03-18T03:58:38;100709.84;;;9.86;100.00
59757;BME280;45631;51.962;5.974;2023-03-18T04:01:06;100718.38;;;9.89;100.00
59757;BME280;45631;51.962;5.974;2023-03-18T04:03:35;100719.31;;;9.88;100.00
59757;BME280;45631;51.962;5.974;2023-03-18T04:06:04;100719.31;;;9.88;100.00
59757;BME280;45631;51.962;5.974;2023-03-18T04:08:34;100715.97;;;9.86;100.00
59757;BME280;45631;51.962;5.974;2023-03-18T04:11:03;100726.38;;;9.88;100.00
59757;BME280;45631;51.962;5.974;2023-03-18T04:13:32;100722.91;;;9.87;100.00
59757;BME280;45631;51.962;5.974;2023-03-18T04:16:00;100729.00;;;9.88;100.00
59757;BME280;45631;51.962;5.974;2023-03-18T04:18:29;100718.81;;;9.83;100.00
59757;BME280;45631;51.962;5.974;2023-03-18T04:20:57;100724.88;;;9.84;100.00
59757;BME280;45631;51.962;5.974;2023-03-18T04:23:26;100725.63;;;9.86;100.00
59757;BME280;45631;51.962;5.974;2023-03-18T04:25:56;100720.28;;;9.87;100.00
59757;BME280;45631;51.962;5.974;2023-03-18T04:28:25;100719.16;;;9.91;100.00
59757;BME280;45631;51.962;5.974;2023-03-18T04:30:53;100720.81;;;9.92;100.00
59757;BME280;45631;51.962;5.974;2023-03-18T04:33:21;100725.72;;;9.84;100.00
59757;BME280;45631;51.962;5.974;2023-03-18T04:35:50;100717.66;;;9.87;100.00
59757;BME280;45631;51.962;5.974;2023-03-18T04:38:19;100730.50;;;9.92;100.00
59757;BME280;45631;51.962;5.974;2023-03-18T04:40:47;100728.91;;;9.89;100.00
59757;BME280;45631;51.962;5.974;2023-03-18T04:43:18;100724.56;;;9.88;100.00
59757;BME280;45631;51.962;5.974;2023-03-18T04:45:47;100727.97;;;9.90;100.00
59757;BME280;45631;51.962;5.974;2023-03-18T04:48:15;100735.94;;;9.89;100.00
59757;BME280;45631;51.962;5.974;2023-03-18T04:50:44;100735.28;;;9.85;100.00
59757;BME280;45631;51.962;5.974;2023-03-18T04:53:12;100732.75;;;9.84;100.00
59757;BME280;45631;51.962;5.974;2023-03-18T04:55:41;100730.97;;;9.84;100.00
59757;BME280;45631;51.962;5.974;2023-03-18T04:58:10;100733.50;;;9.86;100.00
59757;BME280;45631;51.962;5.974;2023-03-18T05:00:40;100740.34;;;9.88;100.00
59757;BME280;45631;51.962;5.974;2023-03-18T05:03:10;100733.41;;;9.87;100.00
59757;BME280;45631;51.962;5.974;2023-03-18T05:05:38;100731.94;;;9.83;100.00
59757;BME280;45631;51.962;5.974;2023-03-18T05:08:06;100736.22;;;9.84;100.00
59757;BME280;45631;51.962;5.974;2023-03-18T05:10:36;100737.09;;;9.85;100.00
59757;BME280;45631;51.962;5.974;2023-03-18T05:13:06;100735.38;;;9.84;100.00
59757;BME280;45631;51.962;5.974;2023-03-18T05:15:34;100739.50;;;9.88;100.00
59757;BME280;45631;51.962;5.974;2023-03-18T05:18:04;100736.97;;;9.86;100.00
59757;BME280;45631;51.962;5.974;2023-03-18T05:20:33;100741.38;;;9.86;100.00
59757;BME280;45631;51.962;5.974;2023-03-18T05:23:02;100739.50;;;9.88;100.00
59757;BME280;45631;51.962;5.974;2023-03-18T05:25:30;100735.28;;;9.85;100.00
59757;BME280;45631;51.962;5.974;2023-03-18T05:28:00;100745.06;;;9.83;100.00
59757;BME280;45631;51.962;5.974;2023-03-18T05:30:28;100741.69;;;9.81;100.00
59757;BME280;45631;51.962;5.974;2023-03-18T05:32:57;100742.81;;;9.77;100.00
59757;BME280;45631;51.962;5.974;2023-03-18T05:35:27;100744.72;;;9.75;100.00
59757;BME280;45631;51.962;5.974;2023-03-18T05:37:56;100744.72;;;9.75;100.00
59757;BME280;45631;51.962;5.974;2023-03-18T05:40:25;100746.56;;;9.73;100.00
59757;BME280;45631;51.962;5.974;2023-03-18T05:42:53;100756.16;;;9.74;100.00
59757;BME280;45631;51.962;5.974;2023-03-18T05:45:22;100761.50;;;9.72;100.00
59757;BME280;45631;51.962;5.974;2023-03-18T05:47:51;100757.91;;;9.73;100.00
59757;BME280;45631;51.962;5.974;2023-03-18T05:50:28;100751.81;;;9.73;100.00
59757;BME280;45631;51.962;5.974;2023-03-18T05:52:58;100741.31;;;9.73;100.00
59757;BME280;45631;51.962;5.974;2023-03-18T05:55:27;100749.00;;;9.76;100.00
59757;BME280;45631;51.962;5.974;2023-03-18T05:57:57;100757.75;;;9.76;100.00
59757;BME280;45631;51.962;5.974;2023-03-18T06:00:27;100761.41;;;9.74;100.00
59757;BME280;45631;51.962;5.974;2023-03-18T06:02:56;100780.72;;;9.73;100.00
59757;BME280;45631;51.962;5.974;2023-03-18T06:05:28;100778.91;;;9.73;100.00
59757;BME280;45631;51.962;5.974;2023-03-18T06:07:57;100782.41;;;9.74;100.00
59757;BME280;45631;51.962;5.974;2023-03-18T06:10:28;100790.19;;;9.75;100.00
59757;BME280;45631;51.962;5.974;2023-03-18T06:12:57;100798.91;;;9.76;100.00
59757;BME280;45631;51.962;5.974;2023-03-18T06:15:26;100795.53;;;9.74;100.00
59757;BME280;45631;51.962;5.974;2023-03-18T06:17:54;100801.53;;;9.76;100.00
59757;BME280;45631;51.962;5.974;2023-03-18T06:20:23;100785.03;;;9.74;100.00
59757;BME280;45631;51.962;5.974;2023-03-18T06:22:53;100788.41;;;9.76;100.00
59757;BME280;45631;51.962;5.974;2023-03-18T06:25:24;100781.47;;;9.75;100.00
59757;BME280;45631;51.962;5.974;2023-03-18T06:27:52;100789.88;;;9.80;100.00
59757;BME280;45631;51.962;5.974;2023-03-18T06:30:21;100790.84;;;9.79;100.00
59757;BME280;45631;51.962;5.974;2023-03-18T06:32:50;100795.03;;;9.81;100.00
59757;BME280;45631;51.962;5.974;2023-03-18T06:35:19;100809.03;;;9.82;100.00
59757;BME280;45631;51.962;5.974;2023-03-18T06:37:47;100801.88;;;9.84;100.00
59757;BME280;45631;51.962;5.974;2023-03-18T06:40:17;100797.28;;;9.88;100.00
59757;BME280;45631;51.962;5.974;2023-03-18T06:42:46;100799.44;;;9.95;100.00
59757;BME280;45631;51.962;5.974;2023-03-18T06:45:15;100807.50;;;9.92;100.00
59757;BME280;45631;51.962;5.974;2023-03-18T06:47:44;100809.19;;;9.93;100.00
59757;BME280;45631;51.962;5.974;2023-03-18T06:50:14;100806.38;;;9.96;100.00
59757;BME280;45631;51.962;5.974;2023-03-18T06:52:43;100810.50;;;10.01;100.00
59757;BME280;45631;51.962;5.974;2023-03-18T06:55:12;100812.94;;;10.04;100.00
59757;BME280;45631;51.962;5.974;2023-03-18T06:57:42;100815.66;;;10.02;100.00
59757;BME280;45631;51.962;5.974;2023-03-18T07:00:12;100813.78;;;10.04;100.00
59757;BME280;45631;51.962;5.974;2023-03-18T07:02:41;100809.28;;;10.06;100.00
59757;BME280;45631;51.962;5.974;2023-03-18T07:05:09;100808.97;;;10.11;100.00
59757;BME280;45631;51.962;5.974;2023-03-18T07:07:38;100807.00;;;10.14;100.00
59757;BME280;45631;51.962;5.974;2023-03-18T07:10:15;100814.78;;;10.16;100.00
59757;BME280;45631;51.962;5.974;2023-03-18T07:12:46;100816.38;;;10.19;100.00
59757;BME280;45631;51.962;5.974;2023-03-18T07:15:15;100821.63;;;10.19;100.00
59757;BME280;45631;51.962;5.974;2023-03-18T07:17:45;100829.22;;;10.23;100.00
59757;BME280;45631;51.962;5.974;2023-03-18T07:20:15;100823.13;;;10.23;100.00
59757;BME280;45631;51.962;5.974;2023-03-18T07:22:45;100838.28;;;10.32;100.00
59757;BME280;45631;51.962;5.974;2023-03-18T07:25:14;100844.03;;;10.39;100.00
59757;BME280;45631;51.962;5.974;2023-03-18T07:27:42;100837.13;;;10.51;100.00
59757;BME280;45631;51.962;5.974;2023-03-18T07:30:14;100837.78;;;10.54;100.00
59757;BME280;45631;51.962;5.974;2023-03-18T07:32:43;100847.16;;;10.58;100.00
59757;BME280;45631;51.962;5.974;2023-03-18T07:35:13;100850.44;;;10.62;100.00
59757;BME280;45631;51.962;5.974;2023-03-18T07:37:41;100844.13;;;10.64;100.00
59757;BME280;45631;51.962;5.974;2023-03-18T07:40:11;100856.22;;;10.67;100.00
59757;BME280;45631;51.962;5.974;2023-03-18T07:42:40;100859.31;;;10.74;100.00
59757;BME280;45631;51.962;5.974;2023-03-18T07:45:09;100857.44;;;10.76;100.00
59757;BME280;45631;51.962;5.974;2023-03-18T07:47:39;100865.22;;;10.77;100.00
59757;BME280;45631;51.962;5.974;2023-03-18T07:50:09;100860.06;;;10.76;100.00
59757;BME280;45631;51.962;5.974;2023-03-18T07:52:38;100865.13;;;10.79;100.00
59757;BME280;45631;51.962;5.974;2023-03-18T07:55:07;100863.56;;;10.89;100.00
59757;BME280;45631;51.962;5.974;2023-03-18T07:57:36;100860.84;;;11.04;100.00
59757;BME280;45631;51.962;5.974;2023-03-18T08:00:06;100860.03;;;11.16;100.00
59757;BME280;45631;51.962;5.974;2023-03-18T08:02:36;100867.81;;;11.18;100.00
59757;BME280;45631;51.962;5.974;2023-03-18T08:05:07;100871.59;;;11.13;100.00
59757;BME280;45631;51.962;5.974;2023-03-18T08:07:36;100880.97;;;11.18;100.00
59757;BME280;45631;51.962;5.974;2023-03-18T08:10:06;100889.09;;;11.27;100.00
59757;BME280;45631;51.962;5.974;2023-03-18T08:12:36;100893.47;;;11.41;100.00
59757;BME280;45631;51.962;5.974;2023-03-18T08:15:18;100887.03;;;11.58;100.00
59757;BME280;45631;51.962;5.974;2023-03-18T08:17:47;100882.50;;;11.73;100.00
59757;BME280;45631;51.962;5.974;2023-03-18T08:20:18;100883.56;;;11.83;100.00
59757;BME280;45631;51.962;5.974;2023-03-18T08:22:47;100892.91;;;12.13;100.00
59757;BME280;45631;51.962;5.974;2023-03-18T08:25:16;100890.34;;;12.25;100.00
59757;BME280;45631;51.962;5.974;2023-03-18T08:27:45;100897.03;;;12.17;100.00
59757;BME280;45631;51.962;5.974;2023-03-18T08:30:13;100899.66;;;12.05;100.00
59757;BME280;45631;51.962;5.974;2023-03-18T08:32:42;100894.16;;;12.08;100.00
59757;BME280;45631;51.962;5.974;2023-03-18T08:35:11;100903.53;;;12.12;100.00
59757;BME280;45631;51.962;5.974;2023-03-18T08:37:41;100908.81;;;12.12;100.00
59757;BME280;45631;51.962;5.974;2023-03-18T08:40:11;100907.69;;;12.03;100.00
59757;BME280;45631;51.962;5.974;2023-03-18T08:42:39;100911.50;;;11.99;100.00
59757;BME280;45631;51.962;5.974;2023-03-18T08:45:08;100914.22;;;11.97;100.00
59757;BME280;45631;51.962;5.974;2023-03-18T08:47:38;100915.72;;;12.02;100.00
59757;BME280;45631;51.962;5.974;2023-03-18T08:50:08;100909.97;;;12.08;100.00
59757;BME280;45631;51.962;5.974;2023-03-18T08:52:37;100916.31;;;12.05;100.00
59757;BME280;45631;51.962;5.974;2023-03-18T08:55:09;100909.56;;;12.14;100.00
59757;BME280;45631;51.962;5.974;2023-03-18T08:57:38;100915.38;;;12.19;100.00
59757;BME280;45631;51.962;5.974;2023-03-18T09:00:07;100919.47;;;12.23;100.00
59757;BME280;45631;51.962;5.974;2023-03-18T09:02:37;100917.69;;;12.11;100.00
59757;BME280;45631;51.962;5.974;2023-03-18T09:05:06;100923.16;;;12.21;100.00
59757;BME280;45631;51.962;5.974;2023-03-18T09:07:34;100915.66;;;12.27;100.00
59757;BME280;45631;51.962;5.974;2023-03-18T09:10:04;100908.28;;;12.32;100.00
59757;BME280;45631;51.962;5.974;2023-03-18T09:12:34;100921.19;;;12.48;100.00
59757;BME280;45631;51.962;5.974;2023-03-18T09:15:03;100924.00;;;12.58;100.00
59757;BME280;45631;51.962;5.974;2023-03-18T09:17:32;100922.25;;;12.70;100.00
59757;BME280;45631;51.962;5.974;2023-03-18T09:20:19;100909.97;;;12.82;100.00
59757;BME280;45631;51.962;5.974;2023-03-18T09:22:48;100919.41;;;12.97;100.00
59757;BME280;45631;51.962;5.974;2023-03-18T09:25:18;100920.28;;;13.09;100.00
59757;BME280;45631;51.962;5.974;2023-03-18T09:27:48;100927.34;;;13.09;100.00
59757;BME280;45631;51.962;5.974;2023-03-18T09:30:16;100929.28;;;13.07;100.00
59757;BME280;45631;51.962;5.974;2023-03-18T09:32:47;100917.66;;;13.45;100.00
59757;BME280;45631;51.962;5.974;2023-03-18T09:35:16;100920.44;;;13.66;100.00
59757;BME280;45631;51.962;5.974;2023-03-18T09:37:44;100918.31;;;14.05;100.00
59757;BME280;45631;51.962;5.974;2023-03-18T09:40:18;100920.09;;;13.93;100.00
59757;BME280;45631;51.962;5.974;2023-03-18T09:42:58;100927.91;;;14.29;100.00
59757;BME280;45631;51.962;5.974;2023-03-18T09:45:33;100914.66;;;14.51;100.00
59757;BME280;45631;51.962;5.974;2023-03-18T09:48:20;100912.34;;;14.58;100.00
59757;BME280;45631;51.962;5.974;2023-03-18T09:51:00;100914.03;;;14.70;100.00
59757;BME280;45631;51.962;5.974;2023-03-18T09:53:39;100917.44;;;14.94;100.00
59757;BME280;45631;51.962;5.974;2023-03-18T09:56:14;100923.72;;;15.35;100.00
59757;BME280;45631;51.962;5.974;2023-03-18T09:58:50;100932.00;;;15.63;100.00
59757;BME280;45631;51.962;5.974;2023-03-18T10:01:22;100937.78;;;15.68;100.00
59757;BME280;45631;51.962;5.974;2023-03-18T10:03:56;100939.84;;;15.64;100.00
59757;BME280;45631;51.962;5.974;2023-03-18T10:06:28;100940.16;;;15.71;100.00
59757;BME280;45631;51.962;5.974;2023-03-18T10:09:03;100935.56;;;15.94;100.00
59757;BME280;45631;51.962;5.974;2023-03-18T10:11:38;100933.41;;;15.88;100.00
59757;BME280;45631;51.962;5.974;2023-03-18T10:14:18;100933.53;;;16.08;100.00
59757;BME280;45631;51.962;5.974;2023-03-18T10:16:57;100938.91;;;15.75;100.00
59757;BME280;45631;51.962;5.974;2023-03-18T10:19:28;100934.59;;;15.95;100.00
59757;BME280;45631;51.962;5.974;2023-03-18T10:22:11;100932.34;;;16.00;100.00
59757;BME280;45631;51.962;5.974;2023-03-18T10:24:49;100940.25;;;16.12;100.00
59757;BME280;45631;51.962;5.974;2023-03-18T10:27:25;100939.84;;;16.26;100.00
59757;BME280;45631;51.962;5.974;2023-03-18T10:30:06;100946.66;;;16.09;100.00
59757;BME280;45631;51.962;5.974;2023-03-18T10:32:47;100941.44;;;16.48;100.00
59757;BME280;45631;51.962;5.974;2023-03-18T10:35:27;100938.28;;;16.74;100.00
59757;BME280;45631;51.962;5.974;2023-03-18T10:38:01;100931.91;;;16.96;100.00
59757;BME280;45631;51.962;5.974;2023-03-18T10:40:35;100944.22;;;17.17;100.00
59757;BME280;45631;51.962;5.974;2023-03-18T10:43:11;100942.81;;;17.32;100.00
59757;BME280;45631;51.962;5.974;2023-03-18T10:45:45;100937.88;;;17.47;100.00
59757;BME280;45631;51.962;5.974;2023-03-18T10:48:18;100940.59;;;17.85;100.00
59757;BME280;45631;51.962;5.974;2023-03-18T10:50:53;100925.97;;;18.08;100.00
59757;BME280;45631;51.962;5.974;2023-03-18T10:53:27;100924.66;;;18.40;100.00
59757;BME280;45631;51.962;5.974;2023-03-18T10:56:01;100914.63;;;18.34;100.00
59757;BME280;45631;51.962;5.974;2023-03-18T10:58:32;100914.56;;;18.44;100.00
59757;BME280;45631;51.962;5.974;2023-03-18T11:01:03;100915.31;;;18.36;100.00
59757;BME280;45631;51.962;5.974;2023-03-18T11:03:33;100913.28;;;18.66;100.00
59757;BME280;45631;51.962;5.974;2023-03-18T11:06:03;100917.47;;;18.69;100.00
59757;BME280;45631;51.962;5.974;2023-03-18T11:08:35;100911.03;;;18.89;100.00
59757;BME280;45631;51.962;5.974;2023-03-18T11:11:20;100909.06;;;19.36;100.00
59757;BME280;45631;51.962;5.974;2023-03-18T11:13:50;100898.50;;;19.26;100.00
59757;BME280;45631;51.962;5.974;2023-03-18T11:16:28;100901.31;;;18.98;100.00
59757;BME280;45631;51.962;5.974;2023-03-18T11:18:57;100907.13;;;18.84;100.00
59757;BME280;45631;51.962;5.974;2023-03-18T11:21:27;100900.53;;;18.88;100.00
59757;BME280;45631;51.962;5.974;2023-03-18T11:23:59;100899.22;;;19.10;100.00
59757;BME280;45631;51.962;5.974;2023-03-18T11:26:52;100894.03;;;19.53;100.00
59757;BME280;45631;51.962;5.974;2023-03-18T11:29:25;100893.19;;;19.79;97.36
59757;BME280;45631;51.962;5.974;2023-03-18T11:31:56;100893.59;;;19.92;100.00
59757;BME280;45631;51.962;5.974;2023-03-18T11:34:26;100897.25;;;19.91;99.05
59757;BME280;45631;51.962;5.974;2023-03-18T11:36:57;100892.53;;;20.11;100.00
59757;BME280;45631;51.962;5.974;2023-03-18T11:39:29;100889.19;;;20.68;96.67
59757;BME280;45631;51.962;5.974;2023-03-18T11:41:59;100899.63;;;20.02;95.11
59757;BME280;45631;51.962;5.974;2023-03-18T11:44:30;100891.66;;;19.23;100.00
59757;BME280;45631;51.962;5.974;2023-03-18T11:47:04;100895.78;;;19.97;98.48
59757;BME280;45631;51.962;5.974;2023-03-18T11:49:35;100893.16;;;20.05;90.63
59757;BME280;45631;51.962;5.974;2023-03-18T11:52:14;100893.59;;;19.92;95.62
59757;BME280;45631;51.962;5.974;2023-03-18T11:55:20;100884.78;;;20.59;92.43
59757;BME280;45631;51.962;5.974;2023-03-18T11:58:15;100886.38;;;20.27;92.67
59757;BME280;45631;51.962;5.974;2023-03-18T12:00:57;100884.31;;;20.80;93.03
59757;BME280;45631;51.962;5.974;2023-03-18T12:03:51;100891.09;;;20.41;89.81
59757;BME280;45631;51.962;5.974;2023-03-18T12:06:24;100893.63;;;20.51;89.58
59757;BME280;45631;51.962;5.974;2023-03-18T12:09:00;100893.41;;;20.36;91.29
59757;BME280;45631;51.962;5.974;2023-03-18T12:11:45;100901.88;;;20.74;91.96
59757;BME280;45631;51.962;5.974;2023-03-18T12:14:26;100887.44;;;20.51;89.37
59757;BME280;45631;51.962;5.974;2023-03-18T12:20:11;100888.34;;;20.08;90.76
59757;BME280;45631;51.962;5.974;2023-03-18T12:23:00;100889.13;;;19.66;93.37
59757;BME280;45631;51.962;5.974;2023-03-18T12:25:41;100884.06;;;19.63;93.01
59757;BME280;45631;51.962;5.974;2023-03-18T12:28:16;100883.56;;;19.59;92.27
59757;BME280;45631;51.962;5.974;2023-03-18T12:30:54;100890.13;;;19.21;94.91
59757;BME280;45631;51.962;5.974;2023-03-18T12:33:35;100888.94;;;19.15;94.24
59757;BME280;45631;51.962;5.974;2023-03-18T12:36:17;100886.31;;;18.97;96.46
59757;BME280;45631;51.962;5.974;2023-03-18T12:41:53;100881.47;;;18.83;94.98
59757;BME280;45631;51.962;5.974;2023-03-18T12:44:43;100882.41;;;18.73;97.33
59757;BME280;45631;51.962;5.974;2023-03-18T12:47:17;100881.31;;;18.66;95.67
59757;BME280;45631;51.962;5.974;2023-03-18T12:49:51;100882.19;;;18.67;96.04
59757;BME280;45631;51.962;5.974;2023-03-18T12:52:28;100884.72;;;18.40;94.80
59757;BME280;45631;51.962;5.974;2023-03-18T12:55:02;100888.50;;;18.20;97.21
59757;BME280;45631;51.962;5.974;2023-03-18T12:57:39;100882.97;;;18.03;98.91
59757;BME280;45631;51.962;5.974;2023-03-18T13:00:18;100882.72;;;18.06;99.88
59757;BME280;45631;51.962;5.974;2023-03-18T13:02:57;100880.09;;;17.87;100.00
59757;BME280;45631;51.962;5.974;2023-03-18T13:05:41;100878.72;;;17.83;100.00
59757;BME280;45631;51.962;5.974;2023-03-18T13:08:43;100873.78;;;17.88;100.00
59757;BME280;45631;51.962;5.974;2023-03-18T13:11:28;100886.78;;;17.91;100.00
59757;BME280;45631;51.962;5.974;2023-03-18T13:14:03;100879.69;;;17.82;100.00